createdAt,value
2017-09-24T18:06:05.570Z,17.77
2017-09-24T18:08:34.098Z,19.80
2017-09-24T18:11:02.571Z,20.53
2017-09-24T18:13:31.047Z,21.03
2017-09-24T18:15:59.479Z,17.90
2017-09-24T18:18:28.483Z,13.30
2017-09-24T18:20:56.743Z,14.43
2017-09-24T18:23:25.163Z,18.00
2017-09-24T18:25:53.605Z,15.20
2017-09-24T18:28:22.313Z,15.60
2017-09-24T18:30:50.727Z,13.77
2017-09-24T18:33:19.156Z,16.73
2017-09-24T18:35:47.604Z,12.83
2017-09-24T18:38:16.794Z,12.37
2017-09-24T18:40:45.215Z,13.57
2017-09-24T18:43:13.665Z,15.80
2017-09-24T18:45:42.873Z,11.03
2017-09-24T18:48:11.109Z,12.93
2017-09-24T18:50:39.542Z,13.23
2017-09-24T18:53:07.984Z,13.50
2017-09-24T18:55:36.411Z,11.63
2017-09-24T18:58:04.847Z,11.20
2017-09-24T19:00:34.072Z,13.97
2017-09-24T19:03:02.498Z,13.57
2017-09-24T19:05:30.927Z,12.67
2017-09-24T19:07:59.348Z,12.60
2017-09-24T19:10:27.776Z,11.30
2017-09-24T19:12:56.216Z,11.20
2017-09-24T19:15:24.630Z,11.40
2017-09-24T19:17:53.806Z,12.60
2017-09-24T19:20:22.303Z,12.80
2017-09-24T19:22:51.497Z,10.40
2017-09-24T19:25:20.682Z,12.43
2017-09-24T19:27:49.948Z,13.10
2017-09-24T19:30:18.370Z,11.47
2017-09-24T19:32:47.554Z,14.77
2017-09-24T19:35:17.001Z,11.43
2017-09-24T19:37:45.419Z,11.73
2017-09-24T19:40:13.835Z,15.07
2017-09-24T19:42:42.334Z,11.97
2017-09-24T19:45:10.558Z,12.00
2017-09-24T19:47:39.738Z,15.77
2017-09-24T19:50:08.176Z,15.33
2017-09-24T19:52:36.474Z,13.57
2017-09-24T19:55:04.712Z,13.33
2017-09-24T19:57:33.734Z,15.53
2017-09-24T20:00:01.966Z,17.57
2017-09-24T20:02:33.386Z,15.60
2017-09-24T20:05:03.083Z,15.40
2017-09-24T20:07:33.572Z,17.40
2017-09-24T20:10:02.011Z,14.93
2017-09-24T20:12:33.855Z,15.33
2017-09-24T20:15:02.429Z,13.67
2017-09-24T20:17:30.871Z,12.90
2017-09-24T20:19:59.307Z,13.70
2017-09-24T20:22:27.731Z,17.60
2017-09-24T20:24:56.168Z,41.23
2017-09-24T20:27:24.602Z,35.27
2017-09-24T20:29:53.024Z,26.80
2017-09-24T20:32:21.442Z,17.93
2017-09-24T20:34:49.882Z,18.00
2017-09-24T20:37:18.310Z,17.67
2017-09-24T20:39:46.768Z,15.70
2017-09-24T20:42:15.972Z,21.93
2017-09-24T20:44:44.406Z,14.67
2017-09-24T20:47:12.860Z,13.50
2017-09-24T20:49:41.291Z,13.77
2017-09-24T20:52:10.486Z,16.53
2017-09-24T20:54:39.742Z,13.97
2017-09-24T20:57:07.991Z,13.07
2017-09-24T20:59:36.427Z,12.17
2017-09-24T21:02:04.852Z,14.00
2017-09-24T21:04:33.295Z,17.97
2017-09-24T21:07:02.487Z,14.57
2017-09-24T21:09:31.695Z,18.87
2017-09-24T21:12:00.896Z,22.10
2017-09-24T21:14:30.082Z,17.97
2017-09-24T21:16:59.279Z,17.30
2017-09-24T21:19:28.480Z,17.57
2017-09-24T21:21:57.677Z,16.37
2017-09-24T21:24:26.887Z,21.57
2017-09-24T21:26:55.335Z,21.77
2017-09-24T21:29:23.752Z,20.67
2017-09-24T21:31:52.181Z,19.77
2017-09-24T21:34:20.618Z,18.50
2017-09-24T21:36:49.054Z,20.60
2017-09-24T21:39:17.477Z,23.03
2017-09-24T21:41:45.956Z,25.40
2017-09-24T21:44:14.361Z,24.03
2017-09-24T21:46:42.782Z,24.77
2017-09-24T21:49:11.996Z,23.27
2017-09-24T21:51:40.411Z,23.50
2017-09-24T21:54:08.675Z,21.30
2017-09-24T21:56:36.944Z,25.57
2017-09-24T21:59:05.409Z,23.27
2017-09-24T22:01:33.859Z,23.63
2017-09-24T22:04:03.067Z,24.37
2017-09-24T22:06:32.268Z,21.57
2017-09-24T22:09:00.692Z,20.83
2017-09-24T22:11:29.153Z,22.50
2017-09-24T22:13:57.595Z,20.27
2017-09-24T22:16:26.779Z,22.87
2017-09-24T22:18:55.235Z,21.67
2017-09-24T22:21:23.643Z,28.03
2017-09-24T22:23:52.839Z,22.90
2017-09-24T22:26:21.269Z,21.27
2017-09-24T22:28:49.693Z,20.87
2017-09-24T22:31:18.107Z,19.53
2017-09-24T22:33:46.536Z,21.57
2017-09-24T22:36:14.997Z,26.07
2017-09-24T22:38:43.458Z,23.60
2017-09-24T22:41:11.933Z,26.10
2017-09-24T22:43:40.403Z,26.50
2017-09-24T22:46:08.820Z,26.50
2017-09-24T22:48:37.266Z,28.73
2017-09-24T22:51:05.494Z,23.37
2017-09-24T22:53:33.930Z,25.80
2017-09-24T22:56:02.359Z,27.80
2017-09-24T22:58:30.784Z,27.83
2017-09-24T23:00:58.858Z,27.73
2017-09-24T23:03:27.454Z,23.77
2017-09-24T23:05:55.873Z,24.00
2017-09-24T23:08:25.060Z,24.60
2017-09-24T23:10:53.501Z,23.20
2017-09-24T23:13:21.927Z,27.40
2017-09-24T23:15:51.111Z,27.43
2017-09-24T23:18:19.543Z,26.63
2017-09-24T23:20:47.947Z,32.10
2017-09-24T23:23:16.376Z,21.87
2017-09-24T23:25:45.586Z,28.90
2017-09-24T23:28:14.031Z,22.83
2017-09-24T23:30:42.555Z,20.13
2017-09-24T23:33:10.997Z,22.50
2017-09-24T23:35:40.167Z,18.40
2017-09-24T23:38:08.583Z,21.77
2017-09-24T23:40:37.775Z,24.13
2017-09-24T23:43:06.955Z,23.17
2017-09-24T23:45:35.373Z,25.70
2017-09-24T23:48:03.809Z,21.53
2017-09-24T23:50:32.227Z,23.37
2017-09-24T23:53:00.643Z,20.57
2017-09-24T23:55:29.082Z,21.50
2017-09-24T23:57:58.398Z,22.47
